sensor_id;sensor_type;location;lat;lon;timestamp;temperature;humidity
16663;DHT22;8445;51.270;9.434;2023-08-24T00:00:48;16.00;71.60
16663;DHT22;8445;51.270;9.434;2023-08-24T00:03:17;16.00;71.70
16663;DHT22;8445;51.270;9.434;2023-08-24T00:05:43;15.90;71.70
16663;DHT22;8445;51.270;9.434;2023-08-24T00:08:14;15.80;71.90
16663;DHT22;8445;51.270;9.434;2023-08-24T00:10:44;15.80;72.20
16663;DHT22;8445;51.270;9.434;2023-08-24T00:13:20;15.80;72.60
16663;DHT22;8445;51.270;9.434;2023-08-24T00:15:49;15.70;72.80
16663;DHT22;8445;51.270;9.434;2023-08-24T00:18:21;15.60;73.40
16663;DHT22;8445;51.270;9.434;2023-08-24T00:20:52;15.60;73.20
16663;DHT22;8445;51.270;9.434;2023-08-24T00:23:18;15.60;73.30
16663;DHT22;8445;51.270;9.434;2023-08-24T00:25:44;15.60;73.60
16663;DHT22;8445;51.270;9.434;2023-08-24T00:28:13;15.60;73.70
16663;DHT22;8445;51.270;9.434;2023-08-24T00:30:42;15.60;73.50
16663;DHT22;8445;51.270;9.434;2023-08-24T00:33:10;15.50;73.40
16663;DHT22;8445;51.270;9.434;2023-08-24T00:35:39;15.50;73.50
16663;DHT22;8445;51.270;9.434;2023-08-24T00:38:11;15.50;73.90
16663;DHT22;8445;51.270;9.434;2023-08-24T00:40:44;15.40;73.70
16663;DHT22;8445;51.270;9.434;2023-08-24T00:43:10;15.40;73.50
16663;DHT22;8445;51.270;9.434;2023-08-24T00:45:43;15.40;73.50
16663;DHT22;8445;51.270;9.434;2023-08-24T00:48:14;15.30;74.40
16663;DHT22;8445;51.270;9.434;2023-08-24T00:50:44;15.30;74.80
16663;DHT22;8445;51.270;9.434;2023-08-24T00:53:10;15.30;74.90
16663;DHT22;8445;51.270;9.434;2023-08-24T00:55:45;15.30;74.80
16663;DHT22;8445;51.270;9.434;2023-08-24T00:58:16;15.20;74.70
16663;DHT22;8445;51.270;9.434;2023-08-24T01:00:46;15.20;74.60
16663;DHT22;8445;51.270;9.434;2023-08-24T01:03:23;15.20;74.50
16663;DHT22;8445;51.270;9.434;2023-08-24T01:05:51;15.20;74.50
16663;DHT22;8445;51.270;9.434;2023-08-24T01:08:21;15.20;74.70
16663;DHT22;8445;51.270;9.434;2023-08-24T01:16:42;15.00;74.70
16663;DHT22;8445;51.270;9.434;2023-08-24T01:19:38;15.00;75.30
16663;DHT22;8445;51.270;9.434;2023-08-24T01:27:34;15.00;76.50
16663;DHT22;8445;51.270;9.434;2023-08-24T01:30:05;15.00;76.50
16663;DHT22;8445;51.270;9.434;2023-08-24T01:32:32;15.00;76.70
16663;DHT22;8445;51.270;9.434;2023-08-24T01:35:06;15.00;76.40
16663;DHT22;8445;51.270;9.434;2023-08-24T01:37:35;15.00;76.20
16663;DHT22;8445;51.270;9.434;2023-08-24T01:40:15;15.00;76.00
16663;DHT22;8445;51.270;9.434;2023-08-24T01:42:59;15.00;75.80
16663;DHT22;8445;51.270;9.434;2023-08-24T01:45:32;15.00;75.70
16663;DHT22;8445;51.270;9.434;2023-08-24T01:48:03;15.00;75.70
16663;DHT22;8445;51.270;9.434;2023-08-24T01:50:46;14.90;75.80
16663;DHT22;8445;51.270;9.434;2023-08-24T01:53:22;14.90;76.10
16663;DHT22;8445;51.270;9.434;2023-08-24T01:55:55;14.90;76.30
16663;DHT22;8445;51.270;9.434;2023-08-24T01:58:27;14.90;76.20
16663;DHT22;8445;51.270;9.434;2023-08-24T02:00:57;14.80;76.20
16663;DHT22;8445;51.270;9.434;2023-08-24T02:03:26;14.80;76.60
16663;DHT22;8445;51.270;9.434;2023-08-24T02:05:55;14.80;76.70
16663;DHT22;8445;51.270;9.434;2023-08-24T02:08:24;14.80;76.50
16663;DHT22;8445;51.270;9.434;2023-08-24T02:10:53;14.70;76.40
16663;DHT22;8445;51.270;9.434;2023-08-24T02:13:22;14.70;76.80
16663;DHT22;8445;51.270;9.434;2023-08-24T02:16:08;14.70;76.70
16663;DHT22;8445;51.270;9.434;2023-08-24T02:18:35;14.70;76.70
16663;DHT22;8445;51.270;9.434;2023-08-24T02:21:11;14.70;76.70
16663;DHT22;8445;51.270;9.434;2023-08-24T02:23:44;14.70;76.70
16663;DHT22;8445;51.270;9.434;2023-08-24T02:26:22;14.70;76.70
16663;DHT22;8445;51.270;9.434;2023-08-24T02:28:59;14.60;76.70
16663;DHT22;8445;51.270;9.434;2023-08-24T02:31:28;14.60;76.70
16663;DHT22;8445;51.270;9.434;2023-08-24T02:33:57;14.60;76.80
16663;DHT22;8445;51.270;9.434;2023-08-24T02:36:35;14.60;76.90
16663;DHT22;8445;51.270;9.434;2023-08-24T02:39:06;14.50;76.80
16663;DHT22;8445;51.270;9.434;2023-08-24T02:41:36;14.50;76.80
16663;DHT22;8445;51.270;9.434;2023-08-24T02:44:02;14.50;77.40
16663;DHT22;8445;51.270;9.434;2023-08-24T02:46:31;14.50;77.40
16663;DHT22;8445;51.270;9.434;2023-08-24T02:49:02;14.50;77.30
16663;DHT22;8445;51.270;9.434;2023-08-24T02:51:38;14.50;77.30
16663;DHT22;8445;51.270;9.434;2023-08-24T02:54:11;14.40;77.30
16663;DHT22;8445;51.270;9.434;2023-08-24T02:56:45;14.40;77.50
16663;DHT22;8445;51.270;9.434;2023-08-24T02:59:14;14.40;77.50
16663;DHT22;8445;51.270;9.434;2023-08-24T03:01:40;14.40;77.90
16663;DHT22;8445;51.270;9.434;2023-08-24T03:04:09;14.40;77.80
16663;DHT22;8445;51.270;9.434;2023-08-24T03:06:43;14.40;78.60
16663;DHT22;8445;51.270;9.434;2023-08-24T03:09:20;14.40;79.00
16663;DHT22;8445;51.270;9.434;2023-08-24T03:11:49;14.40;79.30
16663;DHT22;8445;51.270;9.434;2023-08-24T03:14:18;14.40;79.10
16663;DHT22;8445;51.270;9.434;2023-08-24T03:16:49;14.40;78.90
16663;DHT22;8445;51.270;9.434;2023-08-24T03:19:24;14.40;78.90
16663;DHT22;8445;51.270;9.434;2023-08-24T03:21:52;14.40;78.70
16663;DHT22;8445;51.270;9.434;2023-08-24T03:24:24;14.40;78.50
16663;DHT22;8445;51.270;9.434;2023-08-24T03:26:55;14.40;78.30
16663;DHT22;8445;51.270;9.434;2023-08-24T03:29:26;14.40;78.40
16663;DHT22;8445;51.270;9.434;2023-08-24T03:31:55;14.30;78.60
16663;DHT22;8445;51.270;9.434;2023-08-24T03:34:29;14.30;78.50
16663;DHT22;8445;51.270;9.434;2023-08-24T03:37:21;14.30;78.50
16663;DHT22;8445;51.270;9.434;2023-08-24T03:39:51;14.30;79.00
16663;DHT22;8445;51.270;9.434;2023-08-24T03:42:22;14.30;79.00
16663;DHT22;8445;51.270;9.434;2023-08-24T03:44:51;14.30;79.10
16663;DHT22;8445;51.270;9.434;2023-08-24T03:47:32;14.30;79.10
16663;DHT22;8445;51.270;9.434;2023-08-24T03:54:07;14.30;79.30
16663;DHT22;8445;51.270;9.434;2023-08-24T04:01:24;14.30;79.80
16663;DHT22;8445;51.270;9.434;2023-08-24T04:17:09;14.30;79.70
16663;DHT22;8445;51.270;9.434;2023-08-24T04:28:33;14.30;80.30
16663;DHT22;8445;51.270;9.434;2023-08-24T04:31:06;14.40;80.30
16663;DHT22;8445;51.270;9.434;2023-08-24T04:33:35;14.40;81.00
16663;DHT22;8445;51.270;9.434;2023-08-24T04:36:09;14.40;81.30
16663;DHT22;8445;51.270;9.434;2023-08-24T04:38:38;14.50;81.70
16663;DHT22;8445;51.270;9.434;2023-08-24T04:41:13;14.50;81.50
16663;DHT22;8445;51.270;9.434;2023-08-24T04:43:46;14.60;81.60
16663;DHT22;8445;51.270;9.434;2023-08-24T04:46:42;14.70;81.80
16663;DHT22;8445;51.270;9.434;2023-08-24T04:49:47;14.80;82.20
16663;DHT22;8445;51.270;9.434;2023-08-24T04:52:23;14.90;82.00
16663;DHT22;8445;51.270;9.434;2023-08-24T04:55:06;15.00;82.00
16663;DHT22;8445;51.270;9.434;2023-08-24T04:57:35;15.10;82.40
16663;DHT22;8445;51.270;9.434;2023-08-24T05:00:04;15.30;82.10
16663;DHT22;8445;51.270;9.434;2023-08-24T05:02:38;15.40;81.80
16663;DHT22;8445;51.270;9.434;2023-08-24T05:05:14;15.50;81.80
16663;DHT22;8445;51.270;9.434;2023-08-24T05:07:53;15.70;81.80
16663;DHT22;8445;51.270;9.434;2023-08-24T05:10:40;15.80;81.70
16663;DHT22;8445;51.270;9.434;2023-08-24T05:13:16;16.00;81.60
16663;DHT22;8445;51.270;9.434;2023-08-24T05:15:44;16.10;81.40
16663;DHT22;8445;51.270;9.434;2023-08-24T05:18:19;16.20;81.20
16663;DHT22;8445;51.270;9.434;2023-08-24T05:21:05;16.30;81.20
16663;DHT22;8445;51.270;9.434;2023-08-24T05:23:39;16.40;81.10
16663;DHT22;8445;51.270;9.434;2023-08-24T05:26:18;16.60;80.90
16663;DHT22;8445;51.270;9.434;2023-08-24T05:28:52;16.70;80.70
16663;DHT22;8445;51.270;9.434;2023-08-24T05:31:25;16.90;80.50
16663;DHT22;8445;51.270;9.434;2023-08-24T05:34:08;17.00;80.30
16663;DHT22;8445;51.270;9.434;2023-08-24T05:36:40;17.20;80.10
16663;DHT22;8445;51.270;9.434;2023-08-24T05:39:19;17.30;79.90
16663;DHT22;8445;51.270;9.434;2023-08-24T05:41:49;17.40;79.50
16663;DHT22;8445;51.270;9.434;2023-08-24T05:44:19;17.50;79.30
16663;DHT22;8445;51.270;9.434;2023-08-24T05:47:01;17.60;79.10
16663;DHT22;8445;51.270;9.434;2023-08-24T05:49:53;17.70;78.70
16663;DHT22;8445;51.270;9.434;2023-08-24T05:52:25;17.80;78.40
16663;DHT22;8445;51.270;9.434;2023-08-24T05:54:59;17.80;77.80
16663;DHT22;8445;51.270;9.434;2023-08-24T05:57:33;17.80;77.60
16663;DHT22;8445;51.270;9.434;2023-08-24T06:00:21;17.90;77.70
16663;DHT22;8445;51.270;9.434;2023-08-24T06:03:02;18.00;77.60
16663;DHT22;8445;51.270;9.434;2023-08-24T06:05:31;18.00;77.50
16663;DHT22;8445;51.270;9.434;2023-08-24T06:08:05;18.10;77.50
16663;DHT22;8445;51.270;9.434;2023-08-24T06:10:44;18.20;77.20
16663;DHT22;8445;51.270;9.434;2023-08-24T06:13:19;18.30;77.10
16663;DHT22;8445;51.270;9.434;2023-08-24T06:15:50;18.40;76.90
16663;DHT22;8445;51.270;9.434;2023-08-24T06:18:19;18.60;76.80
16663;DHT22;8445;51.270;9.434;2023-08-24T06:20:47;18.60;76.60
16663;DHT22;8445;51.270;9.434;2023-08-24T06:23:22;18.70;76.10
16663;DHT22;8445;51.270;9.434;2023-08-24T06:25:48;18.80;75.70
16663;DHT22;8445;51.270;9.434;2023-08-24T06:28:22;18.90;75.50
16663;DHT22;8445;51.270;9.434;2023-08-24T06:30:56;18.90;75.40
16663;DHT22;8445;51.270;9.434;2023-08-24T06:33:36;18.90;75.50
16663;DHT22;8445;51.270;9.434;2023-08-24T06:36:10;19.00;75.40
16663;DHT22;8445;51.270;9.434;2023-08-24T06:38:56;19.00;75.40
16663;DHT22;8445;51.270;9.434;2023-08-24T06:41:24;19.10;75.30
16663;DHT22;8445;51.270;9.434;2023-08-24T06:43:53;19.10;75.10
16663;DHT22;8445;51.270;9.434;2023-08-24T06:46:27;19.20;75.00
16663;DHT22;8445;51.270;9.434;2023-08-24T06:48:58;19.20;74.90
16663;DHT22;8445;51.270;9.434;2023-08-24T06:51:27;19.20;74.80
16663;DHT22;8445;51.270;9.434;2023-08-24T06:53:54;19.30;74.70
16663;DHT22;8445;51.270;9.434;2023-08-24T06:56:25;19.20;74.60
16663;DHT22;8445;51.270;9.434;2023-08-24T06:59:01;19.20;74.50
16663;DHT22;8445;51.270;9.434;2023-08-24T07:01:33;19.20;74.60
16663;DHT22;8445;51.270;9.434;2023-08-24T07:04:18;19.20;74.60
16663;DHT22;8445;51.270;9.434;2023-08-24T07:06:47;19.20;74.50
16663;DHT22;8445;51.270;9.434;2023-08-24T07:09:19;19.20;74.30
16663;DHT22;8445;51.270;9.434;2023-08-24T07:12:17;19.20;74.40
16663;DHT22;8445;51.270;9.434;2023-08-24T07:14:45;19.20;74.40
16663;DHT22;8445;51.270;9.434;2023-08-24T07:17:22;19.20;74.40
16663;DHT22;8445;51.270;9.434;2023-08-24T07:19:48;19.10;74.40
16663;DHT22;8445;51.270;9.434;2023-08-24T07:22:28;19.10;74.50
16663;DHT22;8445;51.270;9.434;2023-08-24T07:25:00;19.20;74.60
16663;DHT22;8445;51.270;9.434;2023-08-24T07:27:50;19.20;74.60
16663;DHT22;8445;51.270;9.434;2023-08-24T07:30:36;19.20;74.50
16663;DHT22;8445;51.270;9.434;2023-08-24T07:33:08;19.20;74.40
16663;DHT22;8445;51.270;9.434;2023-08-24T07:35:37;19.30;74.50
16663;DHT22;8445;51.270;9.434;2023-08-24T07:38:34;19.30;74.50
16663;DHT22;8445;51.270;9.434;2023-08-24T07:41:02;19.40;74.40
16663;DHT22;8445;51.270;9.434;2023-08-24T07:43:38;19.50;74.20
16663;DHT22;8445;51.270;9.434;2023-08-24T07:46:13;19.50;74.30
16663;DHT22;8445;51.270;9.434;2023-08-24T07:48:52;19.50;74.30
16663;DHT22;8445;51.270;9.434;2023-08-24T07:51:36;19.60;74.20
16663;DHT22;8445;51.270;9.434;2023-08-24T07:54:42;19.70;74.20
16663;DHT22;8445;51.270;9.434;2023-08-24T07:57:19;19.70;74.10
16663;DHT22;8445;51.270;9.434;2023-08-24T07:59:57;19.90;74.10
16663;DHT22;8445;51.270;9.434;2023-08-24T08:02:28;20.00;74.10
16663;DHT22;8445;51.270;9.434;2023-08-24T08:05:13;20.00;74.10
16663;DHT22;8445;51.270;9.434;2023-08-24T08:07:52;20.30;74.20
16663;DHT22;8445;51.270;9.434;2023-08-24T08:11:09;20.50;73.90
16663;DHT22;8445;51.270;9.434;2023-08-24T08:13:43;20.80;73.00
16663;DHT22;8445;51.270;9.434;2023-08-24T08:16:56;21.00;73.00
16663;DHT22;8445;51.270;9.434;2023-08-24T08:19:50;21.40;72.50
16663;DHT22;8445;51.270;9.434;2023-08-24T08:23:05;21.70;71.50
16663;DHT22;8445;51.270;9.434;2023-08-24T08:25:39;22.00;70.80
16663;DHT22;8445;51.270;9.434;2023-08-24T08:28:13;22.20;70.40
16663;DHT22;8445;51.270;9.434;2023-08-24T08:31:02;22.40;69.90
16663;DHT22;8445;51.270;9.434;2023-08-24T08:34:05;22.60;69.60
16663;DHT22;8445;51.270;9.434;2023-08-24T08:37:16;22.90;69.20
16663;DHT22;8445;51.270;9.434;2023-08-24T08:40:03;23.10;68.30
16663;DHT22;8445;51.270;9.434;2023-08-24T08:42:46;23.30;67.00
16663;DHT22;8445;51.270;9.434;2023-08-24T08:46:00;23.40;67.40
16663;DHT22;8445;51.270;9.434;2023-08-24T08:48:52;23.60;67.60
16663;DHT22;8445;51.270;9.434;2023-08-24T08:51:25;23.90;67.50
16663;DHT22;8445;51.270;9.434;2023-08-24T08:54:38;24.20;66.90
16663;DHT22;8445;51.270;9.434;2023-08-24T08:57:22;24.50;63.40
16663;DHT22;8445;51.270;9.434;2023-08-24T09:00:27;24.60;63.60
16663;DHT22;8445;51.270;9.434;2023-08-24T09:03:40;24.60;62.80
16663;DHT22;8445;51.270;9.434;2023-08-24T09:06:33;24.60;62.30
16663;DHT22;8445;51.270;9.434;2023-08-24T09:15:36;24.70;61.80
16663;DHT22;8445;51.270;9.434;2023-08-24T09:22:28;25.00;62.00
16663;DHT22;8445;51.270;9.434;2023-08-24T09:25:47;25.30;61.10
16663;DHT22;8445;51.270;9.434;2023-08-24T09:28:34;25.60;60.30
16663;DHT22;8445;51.270;9.434;2023-08-24T09:31:18;25.90;60.30
16663;DHT22;8445;51.270;9.434;2023-08-24T09:33:51;26.10;59.50
16663;DHT22;8445;51.270;9.434;2023-08-24T09:36:51;26.40;59.00
16663;DHT22;8445;51.270;9.434;2023-08-24T09:40:04;26.80;58.50
16663;DHT22;8445;51.270;9.434;2023-08-24T09:42:42;27.20;57.80
16663;DHT22;8445;51.270;9.434;2023-08-24T09:45:23;27.40;57.50
16663;DHT22;8445;51.270;9.434;2023-08-24T09:51:16;27.50;55.40
16663;DHT22;8445;51.270;9.434;2023-08-24T09:54:12;27.30;55.20
16663;DHT22;8445;51.270;9.434;2023-08-24T09:57:22;27.10;55.40
16663;DHT22;8445;51.270;9.434;2023-08-24T10:05:27;26.60;56.00
16663;DHT22;8445;51.270;9.434;2023-08-24T10:26:13;25.60;56.20
16663;DHT22;8445;51.270;9.434;2023-08-24T10:30:02;25.50;56.00
16663;DHT22;8445;51.270;9.434;2023-08-24T10:37:27;25.40;55.90
16663;DHT22;8445;51.270;9.434;2023-08-24T10:40:53;25.30;56.40
16663;DHT22;8445;51.270;9.434;2023-08-24T10:43:52;25.40;56.60
16663;DHT22;8445;51.270;9.434;2023-08-24T10:47:21;25.40;56.40
16663;DHT22;8445;51.270;9.434;2023-08-24T10:50:13;25.50;56.80
16663;DHT22;8445;51.270;9.434;2023-08-24T10:53:01;25.60;56.80
16663;DHT22;8445;51.270;9.434;2023-08-24T10:57:17;25.70;56.90
16663;DHT22;8445;51.270;9.434;2023-08-24T11:05:33;26.00;56.30
16663;DHT22;8445;51.270;9.434;2023-08-24T11:20:27;26.60;55.30
16663;DHT22;8445;51.270;9.434;2023-08-24T11:49:34;28.00;53.20
16663;DHT22;8445;51.270;9.434;2023-08-24T11:52:46;28.20;53.40
16663;DHT22;8445;51.270;9.434;2023-08-24T11:56:03;28.40;53.50
16663;DHT22;8445;51.270;9.434;2023-08-24T11:59:18;28.60;52.60
16663;DHT22;8445;51.270;9.434;2023-08-24T12:01:55;28.70;52.30
16663;DHT22;8445;51.270;9.434;2023-08-24T12:04:41;28.90;51.90
16663;DHT22;8445;51.270;9.434;2023-08-24T12:07:21;28.90;51.80
16663;DHT22;8445;51.270;9.434;2023-08-24T12:10:18;29.00;51.40
16663;DHT22;8445;51.270;9.434;2023-08-24T12:13:26;29.10;51.50
16663;DHT22;8445;51.270;9.434;2023-08-24T12:16:13;29.20;51.20
16663;DHT22;8445;51.270;9.434;2023-08-24T12:19:45;29.20;51.10
16663;DHT22;8445;51.270;9.434;2023-08-24T12:23:01;29.30;51.10
16663;DHT22;8445;51.270;9.434;2023-08-24T12:25:44;29.50;51.30
16663;DHT22;8445;51.270;9.434;2023-08-24T12:32:50;29.70;50.40
16663;DHT22;8445;51.270;9.434;2023-08-24T12:35:51;29.90;49.40
16663;DHT22;8445;51.270;9.434;2023-08-24T12:38:28;30.10;49.30
16663;DHT22;8445;51.270;9.434;2023-08-24T12:41:11;30.30;49.60
16663;DHT22;8445;51.270;9.434;2023-08-24T12:44:16;30.50;49.40
16663;DHT22;8445;51.270;9.434;2023-08-24T12:47:13;30.70;49.00
16663;DHT22;8445;51.270;9.434;2023-08-24T12:50:40;30.90;48.80
16663;DHT22;8445;51.270;9.434;2023-08-24T12:56:36;31.30;47.80
16663;DHT22;8445;51.270;9.434;2023-08-24T13:06:46;31.80;47.10
16663;DHT22;8445;51.270;9.434;2023-08-24T13:10:29;32.00;45.60
16663;DHT22;8445;51.270;9.434;2023-08-24T13:13:37;32.20;44.60
16663;DHT22;8445;51.270;9.434;2023-08-24T13:16:26;32.30;44.10
16663;DHT22;8445;51.270;9.434;2023-08-24T13:19:39;32.40;44.40
16663;DHT22;8445;51.270;9.434;2023-08-24T13:22:35;32.50;44.20
16663;DHT22;8445;51.270;9.434;2023-08-24T13:25:21;32.60;44.00
16663;DHT22;8445;51.270;9.434;2023-08-24T13:27:53;32.80;43.70
16663;DHT22;8445;51.270;9.434;2023-08-24T13:30:25;32.90;43.00
16663;DHT22;8445;51.270;9.434;2023-08-24T13:33:13;33.00;42.80
16663;DHT22;8445;51.270;9.434;2023-08-24T13:35:54;33.00;42.10
16663;DHT22;8445;51.270;9.434;2023-08-24T13:41:38;33.00;42.50
16663;DHT22;8445;51.270;9.434;2023-08-24T13:51:12;33.20;41.10
16663;DHT22;8445;51.270;9.434;2023-08-24T13:54:20;33.20;41.70
16663;DHT22;8445;51.270;9.434;2023-08-24T13:57:30;33.30;41.80
16663;DHT22;8445;51.270;9.434;2023-08-24T14:00:23;33.30;41.50
16663;DHT22;8445;51.270;9.434;2023-08-24T14:03:28;33.20;41.20
16663;DHT22;8445;51.270;9.434;2023-08-24T14:06:30;33.20;41.50
16663;DHT22;8445;51.270;9.434;2023-08-24T14:09:32;33.10;41.10
16663;DHT22;8445;51.270;9.434;2023-08-24T14:12:11;33.00;41.00
16663;DHT22;8445;51.270;9.434;2023-08-24T14:14:48;32.90;40.90
16663;DHT22;8445;51.270;9.434;2023-08-24T14:18:05;32.80;40.80
16663;DHT22;8445;51.270;9.434;2023-08-24T14:21:22;32.70;41.10
16663;DHT22;8445;51.270;9.434;2023-08-24T14:24:37;32.50;41.00
16663;DHT22;8445;51.270;9.434;2023-08-24T14:27:40;32.40;40.70
16663;DHT22;8445;51.270;9.434;2023-08-24T14:30:54;32.20;40.90
16663;DHT22;8445;51.270;9.434;2023-08-24T14:33:55;31.90;41.20
16663;DHT22;8445;51.270;9.434;2023-08-24T14:37:40;31.70;41.70
16663;DHT22;8445;51.270;9.434;2023-08-24T14:40:19;31.60;42.20
16663;DHT22;8445;51.270;9.434;2023-08-24T14:43:05;31.60;42.30
16663;DHT22;8445;51.270;9.434;2023-08-24T14:45:45;31.60;42.60
16663;DHT22;8445;51.270;9.434;2023-08-24T14:48:16;31.70;42.80
16663;DHT22;8445;51.270;9.434;2023-08-24T14:50:54;31.70;43.00
16663;DHT22;8445;51.270;9.434;2023-08-24T14:53:47;31.80;43.20
16663;DHT22;8445;51.270;9.434;2023-08-24T14:56:28;31.90;43.20
16663;DHT22;8445;51.270;9.434;2023-08-24T14:59:13;32.00;43.00
16663;DHT22;8445;51.270;9.434;2023-08-24T15:02:12;32.00;43.00
16663;DHT22;8445;51.270;9.434;2023-08-24T15:04:53;32.00;43.20
16663;DHT22;8445;51.270;9.434;2023-08-24T15:07:49;32.00;43.20
16663;DHT22;8445;51.270;9.434;2023-08-24T15:10:38;32.00;43.30
16663;DHT22;8445;51.270;9.434;2023-08-24T15:13:51;31.90;43.40
16663;DHT22;8445;51.270;9.434;2023-08-24T15:16:33;31.80;43.60
16663;DHT22;8445;51.270;9.434;2023-08-24T15:19:19;31.80;43.60
16663;DHT22;8445;51.270;9.434;2023-08-24T15:21:54;31.80;43.60
16663;DHT22;8445;51.270;9.434;2023-08-24T15:24:51;31.70;43.60
16663;DHT22;8445;51.270;9.434;2023-08-24T15:27:24;31.60;43.70
16663;DHT22;8445;51.270;9.434;2023-08-24T15:30:32;31.50;43.90
16663;DHT22;8445;51.270;9.434;2023-08-24T15:33:45;31.50;44.40
16663;DHT22;8445;51.270;9.434;2023-08-24T15:37:11;31.50;44.60
16663;DHT22;8445;51.270;9.434;2023-08-24T15:39:55;31.50;44.60
16663;DHT22;8445;51.270;9.434;2023-08-24T15:42:41;31.50;44.60
16663;DHT22;8445;51.270;9.434;2023-08-24T15:46:06;31.50;44.50
16663;DHT22;8445;51.270;9.434;2023-08-24T15:48:51;31.40;44.60
16663;DHT22;8445;51.270;9.434;2023-08-24T15:55:59;31.30;44.60
16663;DHT22;8445;51.270;9.434;2023-08-24T15:59:40;31.10;44.90
16663;DHT22;8445;51.270;9.434;2023-08-24T16:06:48;30.80;45.20
16663;DHT22;8445;51.270;9.434;2023-08-24T16:09:19;30.70;45.50
16663;DHT22;8445;51.270;9.434;2023-08-24T16:11:50;30.60;45.50
16663;DHT22;8445;51.270;9.434;2023-08-24T16:14:40;30.50;45.50
16663;DHT22;8445;51.270;9.434;2023-08-24T16:17:34;30.20;45.70
16663;DHT22;8445;51.270;9.434;2023-08-24T16:21:14;30.00;45.90
16663;DHT22;8445;51.270;9.434;2023-08-24T16:27:18;29.50;46.20
16663;DHT22;8445;51.270;9.434;2023-08-24T16:30:23;29.40;46.30
16663;DHT22;8445;51.270;9.434;2023-08-24T16:32:57;29.30;46.50
16663;DHT22;8445;51.270;9.434;2023-08-24T16:35:52;29.20;46.70
16663;DHT22;8445;51.270;9.434;2023-08-24T16:38:23;29.20;46.70
16663;DHT22;8445;51.270;9.434;2023-08-24T16:44:41;29.20;46.70
16663;DHT22;8445;51.270;9.434;2023-08-24T16:47:27;29.10;46.70
16663;DHT22;8445;51.270;9.434;2023-08-24T16:50:19;29.10;46.70
16663;DHT22;8445;51.270;9.434;2023-08-24T16:53:17;29.10;46.90
16663;DHT22;8445;51.270;9.434;2023-08-24T16:56:17;29.00;46.90
16663;DHT22;8445;51.270;9.434;2023-08-24T16:59:31;28.90;46.90
16663;DHT22;8445;51.270;9.434;2023-08-24T17:02:06;28.80;47.20
16663;DHT22;8445;51.270;9.434;2023-08-24T17:04:51;28.60;47.50
16663;DHT22;8445;51.270;9.434;2023-08-24T17:08:36;28.50;48.00
16663;DHT22;8445;51.270;9.434;2023-08-24T17:11:33;28.20;48.50
16663;DHT22;8445;51.270;9.434;2023-08-24T17:18:20;27.80;48.90
16663;DHT22;8445;51.270;9.434;2023-08-24T17:21:04;27.50;49.20
16663;DHT22;8445;51.270;9.434;2023-08-24T17:24:02;27.50;49.50
16663;DHT22;8445;51.270;9.434;2023-08-24T17:30:51;27.10;50.10
16663;DHT22;8445;51.270;9.434;2023-08-24T17:34:26;27.00;50.30
16663;DHT22;8445;51.270;9.434;2023-08-24T17:40:03;26.70;50.80
16663;DHT22;8445;51.270;9.434;2023-08-24T17:43:00;26.60;51.10
16663;DHT22;8445;51.270;9.434;2023-08-24T17:45:43;26.40;51.20
16663;DHT22;8445;51.270;9.434;2023-08-24T17:48:17;26.40;51.40
16663;DHT22;8445;51.270;9.434;2023-08-24T17:51:09;26.20;52.00
16663;DHT22;8445;51.270;9.434;2023-08-24T17:54:07;26.10;52.10
16663;DHT22;8445;51.270;9.434;2023-08-24T17:56:46;26.00;52.20
16663;DHT22;8445;51.270;9.434;2023-08-24T18:06:42;25.80;53.50
16663;DHT22;8445;51.270;9.434;2023-08-24T18:09:43;25.60;53.90
16663;DHT22;8445;51.270;9.434;2023-08-24T18:15:32;25.30;54.80
16663;DHT22;8445;51.270;9.434;2023-08-24T18:18:20;25.20;55.20
16663;DHT22;8445;51.270;9.434;2023-08-24T18:21:19;25.10;55.40
16663;DHT22;8445;51.270;9.434;2023-08-24T18:23:54;25.00;55.70
16663;DHT22;8445;51.270;9.434;2023-08-24T18:26:38;25.00;55.50
16663;DHT22;8445;51.270;9.434;2023-08-24T18:29:31;24.80;55.50
16663;DHT22;8445;51.270;9.434;2023-08-24T18:32:09;24.70;55.30
16663;DHT22;8445;51.270;9.434;2023-08-24T18:34:42;24.60;55.30
16663;DHT22;8445;51.270;9.434;2023-08-24T18:37:11;24.50;55.20
16663;DHT22;8445;51.270;9.434;2023-08-24T18:39:45;24.40;55.40
16663;DHT22;8445;51.270;9.434;2023-08-24T18:42:18;24.40;55.30
16663;DHT22;8445;51.270;9.434;2023-08-24T18:45:02;24.40;55.20
16663;DHT22;8445;51.270;9.434;2023-08-24T18:47:34;24.30;55.30
16663;DHT22;8445;51.270;9.434;2023-08-24T18:50:03;24.20;55.40
16663;DHT22;8445;51.270;9.434;2023-08-24T18:52:32;24.20;55.50
16663;DHT22;8445;51.270;9.434;2023-08-24T18:54:59;24.20;55.60
16663;DHT22;8445;51.270;9.434;2023-08-24T18:57:31;24.10;55.60
16663;DHT22;8445;51.270;9.434;2023-08-24T19:00:04;24.00;55.70
16663;DHT22;8445;51.270;9.434;2023-08-24T19:02:31;24.00;55.80
16663;DHT22;8445;51.270;9.434;2023-08-24T19:04:57;24.00;55.90
16663;DHT22;8445;51.270;9.434;2023-08-24T19:07:29;24.00;56.10
16663;DHT22;8445;51.270;9.434;2023-08-24T19:10:01;23.90;56.20
16663;DHT22;8445;51.270;9.434;2023-08-24T19:12:37;23.90;56.40
16663;DHT22;8445;51.270;9.434;2023-08-24T19:15:35;23.80;56.30
16663;DHT22;8445;51.270;9.434;2023-08-24T19:18:03;23.80;56.70
16663;DHT22;8445;51.270;9.434;2023-08-24T19:20:43;23.80;56.70
16663;DHT22;8445;51.270;9.434;2023-08-24T19:23:22;23.80;57.20
16663;DHT22;8445;51.270;9.434;2023-08-24T19:25:48;23.70;57.70
16663;DHT22;8445;51.270;9.434;2023-08-24T19:28:20;23.60;58.30
16663;DHT22;8445;51.270;9.434;2023-08-24T19:30:59;23.60;58.00
16663;DHT22;8445;51.270;9.434;2023-08-24T19:33:42;23.60;58.10
16663;DHT22;8445;51.270;9.434;2023-08-24T19:36:42;23.60;58.20
16663;DHT22;8445;51.270;9.434;2023-08-24T19:39:22;23.50;58.50
16663;DHT22;8445;51.270;9.434;2023-08-24T19:41:53;23.50;58.70
16663;DHT22;8445;51.270;9.434;2023-08-24T19:48:21;23.40;59.30
16663;DHT22;8445;51.270;9.434;2023-08-24T19:51:47;23.30;59.10
16663;DHT22;8445;51.270;9.434;2023-08-24T19:55:09;23.30;59.00
16663;DHT22;8445;51.270;9.434;2023-08-24T20:10:00;23.10;59.70
16663;DHT22;8445;51.270;9.434;2023-08-24T20:12:40;23.10;59.50
16663;DHT22;8445;51.270;9.434;2023-08-24T20:15:51;23.00;60.00
16663;DHT22;8445;51.270;9.434;2023-08-24T20:18:39;23.00;60.40
16663;DHT22;8445;51.270;9.434;2023-08-24T20:21:11;22.90;60.70
16663;DHT22;8445;51.270;9.434;2023-08-24T20:24:13;22.90;60.50
16663;DHT22;8445;51.270;9.434;2023-08-24T20:27:23;22.80;61.10
16663;DHT22;8445;51.270;9.434;2023-08-24T20:30:03;22.80;61.90
16663;DHT22;8445;51.270;9.434;2023-08-24T20:32:40;22.70;62.10
16663;DHT22;8445;51.270;9.434;2023-08-24T20:35:14;22.60;62.00
16663;DHT22;8445;51.270;9.434;2023-08-24T20:37:57;22.60;61.80
16663;DHT22;8445;51.270;9.434;2023-08-24T20:40:48;22.60;62.20
16663;DHT22;8445;51.270;9.434;2023-08-24T20:43:33;22.60;61.90
16663;DHT22;8445;51.270;9.434;2023-08-24T20:46:29;22.50;61.80
16663;DHT22;8445;51.270;9.434;2023-08-24T20:49:11;22.50;61.70
16663;DHT22;8445;51.270;9.434;2023-08-24T20:52:08;22.50;61.80
16663;DHT22;8445;51.270;9.434;2023-08-24T20:54:45;22.50;61.90
16663;DHT22;8445;51.270;9.434;2023-08-24T20:57:17;22.50;62.00